createdAt,value
2022-08-25T00:01:57.458Z,4.75
2022-08-25T00:04:25.593Z,8.68
2022-08-25T00:07:24.271Z,12.27
2022-08-25T00:09:54.261Z,24.10
2022-08-25T00:12:21.538Z,16.15
2022-08-25T00:14:48.684Z,4.90
2022-08-25T00:17:15.964Z,4.95
2022-08-25T00:19:43.131Z,4.78
2022-08-25T00:22:10.338Z,4.60
2022-08-25T00:24:37.893Z,3.90
2022-08-25T00:27:07.261Z,4.35
2022-08-25T00:29:38.147Z,3.70
2022-08-25T00:32:27.158Z,4.35
2022-08-25T00:34:57.431Z,4.25
2022-08-25T00:37:24.695Z,4.10
2022-08-25T00:39:53.224Z,4.57
2022-08-25T00:42:21.097Z,4.70
2022-08-25T00:44:48.303Z,4.90
2022-08-25T00:47:16.429Z,4.65
2022-08-25T00:49:48.215Z,4.97
2022-08-25T00:52:20.779Z,4.90
2022-08-25T00:55:03.064Z,4.93
2022-08-25T00:57:57.674Z,4.93
2022-08-25T01:00:39.725Z,5.25
2022-08-25T01:03:07.937Z,4.90
2022-08-25T01:05:36.236Z,4.97
2022-08-25T01:08:06.678Z,5.47
2022-08-25T01:10:38.764Z,4.97
2022-08-25T01:13:16.475Z,5.13
2022-08-25T01:15:47.531Z,6.30
2022-08-25T01:18:15.781Z,5.80
2022-08-25T01:20:45.428Z,6.43
2022-08-25T01:23:12.508Z,7.03
2022-08-25T01:25:51.741Z,6.13
2022-08-25T01:28:20.602Z,6.85
2022-08-25T01:30:47.888Z,5.65
2022-08-25T01:33:17.323Z,6.05
2022-08-25T01:35:45.752Z,5.90
2022-08-25T01:38:13.148Z,6.63
2022-08-25T01:40:40.720Z,7.68
2022-08-25T01:43:13.225Z,8.98
2022-08-25T01:45:44.078Z,5.30
2022-08-25T01:48:11.947Z,4.78
2022-08-25T01:50:44.243Z,5.10
2022-08-25T01:53:29.692Z,5.20
2022-08-25T01:56:09.816Z,5.32
2022-08-25T01:58:41.669Z,8.68
2022-08-25T02:01:13.776Z,6.70
2022-08-25T02:03:45.556Z,7.93
2022-08-25T02:06:30.080Z,8.70
2022-08-25T02:09:01.172Z,7.78
2022-08-25T02:11:28.842Z,8.70
2022-08-25T02:13:56.426Z,8.07
2022-08-25T02:16:28.672Z,7.97
2022-08-25T02:18:56.918Z,6.75
2022-08-25T02:21:24.210Z,6.68
2022-08-25T02:23:51.463Z,6.50
2022-08-25T02:26:20.104Z,6.32
2022-08-25T02:28:48.299Z,5.80
2022-08-25T02:31:16.999Z,6.32
2022-08-25T02:33:44.520Z,7.80
2022-08-25T02:36:11.868Z,6.70
2022-08-25T02:38:40.280Z,6.45
2022-08-25T02:41:13.958Z,6.55
2022-08-25T02:43:49.601Z,6.90
2022-08-25T02:46:19.127Z,8.07
2022-08-25T02:48:47.512Z,8.00
2022-08-25T02:51:15.554Z,7.72
2022-08-25T02:53:46.172Z,7.55
2022-08-25T02:56:15.317Z,8.23
2022-08-25T02:58:43.302Z,7.55
2022-08-25T03:01:12.171Z,8.38
2022-08-25T03:03:40.873Z,8.32
2022-08-25T03:06:10.905Z,6.97
2022-08-25T03:08:39.897Z,6.93
2022-08-25T03:11:07.240Z,7.00
2022-08-25T03:13:34.437Z,7.60
2022-08-25T03:16:04.175Z,8.00
2022-08-25T03:18:31.873Z,8.00
2022-08-25T03:20:59.491Z,8.77
2022-08-25T03:23:26.804Z,8.48
2022-08-25T03:26:13.742Z,8.45
2022-08-25T03:28:41.854Z,7.88
2022-08-25T03:31:09.569Z,8.70
2022-08-25T03:33:38.515Z,7.93
2022-08-25T03:36:07.091Z,8.10
2022-08-25T03:38:34.669Z,8.15
2022-08-25T03:41:02.255Z,9.40
2022-08-25T03:43:29.492Z,9.05
2022-08-25T03:45:57.217Z,9.77
2022-08-25T03:48:25.739Z,8.60
2022-08-25T03:50:54.900Z,8.82
2022-08-25T03:53:22.397Z,9.48
2022-08-25T03:55:50.761Z,7.75
2022-08-25T03:58:18.264Z,7.57
2022-08-25T04:00:45.586Z,8.00
2022-08-25T04:03:12.788Z,8.07
2022-08-25T04:05:40.103Z,7.90
2022-08-25T04:08:08.141Z,8.23
2022-08-25T04:10:36.995Z,8.90
2022-08-25T04:13:08.797Z,8.43
2022-08-25T04:15:36.340Z,8.65
2022-08-25T04:18:04.167Z,8.48
2022-08-25T04:20:31.408Z,8.60
2022-08-25T04:23:01.381Z,9.05
2022-08-25T04:25:29.833Z,8.80
2022-08-25T04:27:57.823Z,8.77
2022-08-25T04:30:26.805Z,8.25
2022-08-25T04:32:53.994Z,8.20
2022-08-25T04:35:23.811Z,8.05
2022-08-25T04:37:51.033Z,7.75
2022-08-25T04:40:18.707Z,7.65
2022-08-25T04:42:50.920Z,7.93
2022-08-25T04:45:18.199Z,8.35
2022-08-25T04:47:45.333Z,7.80
2022-08-25T04:50:12.472Z,7.80
2022-08-25T04:52:39.905Z,7.65
2022-08-25T04:55:07.591Z,7.93
2022-08-25T04:57:34.948Z,7.80
2022-08-25T05:00:02.563Z,8.18
2022-08-25T05:02:31.269Z,8.00
2022-08-25T05:04:58.543Z,8.27
2022-08-25T05:07:25.762Z,8.48
2022-08-25T05:09:52.930Z,7.90
2022-08-25T05:12:21.038Z,8.27
2022-08-25T05:14:48.663Z,8.05
2022-08-25T05:17:19.263Z,8.60
2022-08-25T05:19:49.785Z,8.18
2022-08-25T05:22:24.372Z,8.90
2022-08-25T05:24:51.565Z,8.35
2022-08-25T05:27:18.825Z,8.43
2022-08-25T05:29:46.042Z,7.82
2022-08-25T05:32:13.227Z,8.27
2022-08-25T05:34:40.604Z,8.52
2022-08-25T05:37:11.662Z,8.32
2022-08-25T05:39:39.459Z,8.18
2022-08-25T05:42:07.630Z,8.60
2022-08-25T05:44:34.809Z,8.60
2022-08-25T05:47:02.035Z,8.10
2022-08-25T05:49:29.207Z,8.65
2022-08-25T05:51:56.528Z,8.02
2022-08-25T05:54:23.843Z,8.02
2022-08-25T05:56:51.379Z,7.45
2022-08-25T05:59:18.577Z,7.57
2022-08-25T06:02:04.351Z,7.60
2022-08-25T06:04:32.530Z,7.15
2022-08-25T06:07:00.014Z,7.90
2022-08-25T06:09:29.491Z,7.72
2022-08-25T06:11:56.695Z,7.20
2022-08-25T06:14:25.033Z,7.68
2022-08-25T06:16:53.186Z,7.70
2022-08-25T06:19:23.437Z,8.05
2022-08-25T06:21:57.765Z,7.63
2022-08-25T06:24:26.672Z,8.82
2022-08-25T06:26:54.709Z,8.10
2022-08-25T06:29:22.319Z,7.70
2022-08-25T06:31:50.200Z,6.97
2022-08-25T06:34:31.622Z,7.28
2022-08-25T06:37:01.527Z,6.88
2022-08-25T06:39:29.342Z,6.55
2022-08-25T06:41:56.923Z,6.22
2022-08-25T06:44:27.718Z,6.40
2022-08-25T06:46:55.543Z,6.75
2022-08-25T06:49:22.897Z,7.60
2022-08-25T06:51:50.724Z,7.43
2022-08-25T06:54:17.948Z,6.97
2022-08-25T06:56:45.251Z,6.65
2022-08-25T06:59:13.005Z,6.75
2022-08-25T07:01:40.417Z,6.93
2022-08-25T07:04:12.750Z,6.43
2022-08-25T07:06:40.731Z,7.32
2022-08-25T07:09:09.688Z,6.85
2022-08-25T07:11:37.046Z,6.75
2022-08-25T07:14:06.983Z,6.53
2022-08-25T07:16:35.823Z,6.70
2022-08-25T07:19:08.296Z,6.35
2022-08-25T07:21:39.213Z,6.70
2022-08-25T07:24:09.614Z,6.38
2022-08-25T07:26:38.803Z,6.57
2022-08-25T07:29:35.139Z,7.25
2022-08-25T07:32:09.616Z,7.30
2022-08-25T07:34:59.647Z,7.93
2022-08-25T07:37:50.082Z,7.70
2022-08-25T07:40:25.613Z,7.38
2022-08-25T07:42:55.505Z,8.00
2022-08-25T07:45:46.839Z,7.20
2022-08-25T07:48:21.936Z,7.45
2022-08-25T07:50:53.295Z,7.15
2022-08-25T07:53:20.964Z,7.10
2022-08-25T07:55:50.238Z,7.50
2022-08-25T07:58:28.640Z,7.65
2022-08-25T08:01:03.735Z,7.18
2022-08-25T08:03:51.075Z,7.53
2022-08-25T08:06:22.675Z,8.48
2022-08-25T08:08:54.605Z,8.15
2022-08-25T08:11:29.887Z,7.78
2022-08-25T08:13:58.482Z,6.80
2022-08-25T08:16:28.388Z,8.27
2022-08-25T08:18:56.407Z,7.47
2022-08-25T08:21:29.904Z,7.15
2022-08-25T08:23:59.167Z,7.70
2022-08-25T08:26:48.119Z,7.95
2022-08-25T08:29:20.370Z,7.38
2022-08-25T08:31:49.670Z,7.00
2022-08-25T08:34:17.329Z,7.38
2022-08-25T08:36:45.347Z,7.07
2022-08-25T08:39:12.768Z,7.93
2022-08-25T08:42:19.455Z,7.50
2022-08-25T08:44:46.616Z,7.05
2022-08-25T08:47:32.445Z,6.97
2022-08-25T08:50:11.565Z,7.13
2022-08-25T08:52:50.146Z,7.00
2022-08-25T08:55:29.298Z,7.47
2022-08-25T08:57:58.989Z,7.03
2022-08-25T09:00:28.039Z,7.55
2022-08-25T09:03:05.068Z,7.43
2022-08-25T09:05:46.857Z,6.57
2022-08-25T09:08:20.379Z,6.60
2022-08-25T09:11:11.814Z,6.60
2022-08-25T09:14:02.171Z,6.55
2022-08-25T09:16:56.155Z,6.93
2022-08-25T09:19:41.744Z,6.35
2022-08-25T09:22:36.208Z,6.25
2022-08-25T09:25:53.336Z,6.00
2022-08-25T09:28:38.001Z,7.65
2022-08-25T09:31:29.727Z,6.10
2022-08-25T09:34:09.673Z,5.20
2022-08-25T09:36:37.903Z,6.05
2022-08-25T09:39:07.440Z,6.30
2022-08-25T09:41:44.994Z,5.85
2022-08-25T09:44:27.191Z,6.20
2022-08-25T09:47:08.442Z,6.03
2022-08-25T09:49:39.214Z,5.90
2022-08-25T09:52:25.506Z,6.50
2022-08-25T09:54:57.938Z,6.53
2022-08-25T09:57:32.354Z,5.93
2022-08-25T10:00:17.154Z,6.13
2022-08-25T10:03:01.214Z,6.53
2022-08-25T10:05:36.767Z,6.28
2022-08-25T10:08:14.654Z,7.05
2022-08-25T10:10:55.558Z,5.72
2022-08-25T10:13:37.933Z,5.72
2022-08-25T10:16:24.502Z,6.63
2022-08-25T10:19:07.982Z,6.25
2022-08-25T10:21:37.249Z,6.45
2022-08-25T10:24:06.184Z,6.80
2022-08-25T10:26:55.208Z,6.60
2022-08-25T10:29:45.265Z,6.50
2022-08-25T10:32:31.054Z,6.57
2022-08-25T10:35:13.420Z,6.25
2022-08-25T10:38:29.418Z,6.55
2022-08-25T10:41:39.264Z,6.47
2022-08-25T10:44:39.686Z,6.85
2022-08-25T10:47:41.448Z,6.63
2022-08-25T10:50:49.267Z,7.20
2022-08-25T10:53:28.401Z,6.70
2022-08-25T10:55:55.594Z,6.88
2022-08-25T10:58:32.075Z,6.45
2022-08-25T11:01:10.960Z,6.15
2022-08-25T11:03:53.158Z,6.40
2022-08-25T11:09:09.903Z,7.22
2022-08-25T11:11:46.480Z,6.50
2022-08-25T11:14:24.077Z,6.43
2022-08-25T11:16:59.551Z,7.07
2022-08-25T11:19:35.491Z,7.13
2022-08-25T11:22:26.287Z,7.00
2022-08-25T11:24:58.648Z,7.43
2022-08-25T11:27:58.633Z,7.72
2022-08-25T11:30:27.257Z,7.50
2022-08-25T11:32:56.215Z,7.18
2022-08-25T11:35:37.323Z,7.07
2022-08-25T11:38:17.058Z,7.68
2022-08-25T11:41:02.738Z,7.20
2022-08-25T11:44:03.974Z,7.60
2022-08-25T11:47:15.921Z,8.05
2022-08-25T11:50:03.910Z,7.90
2022-08-25T11:52:34.774Z,8.07
2022-08-25T11:55:23.100Z,7.75
2022-08-25T11:58:12.017Z,8.05
2022-08-25T12:00:45.218Z,7.85
2022-08-25T12:03:41.671Z,7.43
2022-08-25T12:06:34.586Z,7.30
2022-08-25T12:09:03.279Z,7.72
2022-08-25T12:11:58.475Z,7.72
2022-08-25T12:14:28.087Z,7.43
2022-08-25T12:16:55.774Z,7.57
2022-08-25T12:19:35.821Z,7.20
2022-08-25T12:22:04.069Z,6.93
2022-08-25T12:24:48.206Z,7.43
2022-08-25T12:27:19.588Z,7.30
2022-08-25T12:29:53.735Z,6.93
2022-08-25T12:33:02.437Z,7.45
2022-08-25T12:35:37.460Z,6.45
2022-08-25T12:38:15.929Z,6.93
2022-08-25T12:40:43.190Z,6.72
2022-08-25T12:43:54.562Z,7.22
2022-08-25T12:46:28.149Z,7.45
2022-08-25T12:49:34.301Z,7.53
2022-08-25T12:52:16.101Z,6.80
2022-08-25T12:54:55.737Z,6.85
2022-08-25T12:57:44.900Z,7.32
2022-08-25T13:00:22.460Z,7.15
2022-08-25T13:03:01.776Z,7.53
2022-08-25T13:05:51.863Z,7.17
2022-08-25T13:08:52.930Z,7.10
2022-08-25T13:12:06.507Z,6.60
2022-08-25T13:14:45.170Z,7.78
2022-08-25T13:17:26.126Z,6.93
2022-08-25T13:20:12.925Z,7.07
2022-08-25T13:22:40.597Z,7.93
2022-08-25T13:25:16.094Z,6.72
2022-08-25T13:28:06.721Z,6.70
2022-08-25T13:30:39.985Z,7.43
2022-08-25T13:33:20.445Z,7.53
2022-08-25T13:36:12.218Z,7.25
2022-08-25T13:38:39.997Z,7.60
2022-08-25T13:41:09.409Z,7.32
2022-08-25T13:43:39.561Z,7.53
2022-08-25T13:46:08.786Z,7.35
2022-08-25T13:48:49.524Z,6.70
2022-08-25T13:51:23.196Z,6.65
2022-08-25T13:53:58.442Z,7.30
2022-08-25T13:56:39.928Z,7.22
2022-08-25T13:59:26.260Z,7.03
2022-08-25T14:01:55.855Z,6.72
2022-08-25T14:04:34.919Z,7.57
2022-08-25T14:07:19.325Z,6.63
2022-08-25T14:09:46.999Z,6.93
2022-08-25T14:12:39.066Z,7.90
2022-08-25T14:15:26.160Z,8.43
2022-08-25T14:18:30.358Z,8.50
2022-08-25T14:20:58.589Z,7.65
2022-08-25T14:23:30.838Z,7.43
2022-08-25T14:25:58.859Z,7.35
2022-08-25T14:28:32.183Z,7.45
2022-08-25T14:31:08.721Z,7.25
2022-08-25T14:33:42.940Z,7.25
2022-08-25T14:36:10.449Z,7.45
2022-08-25T14:38:41.160Z,7.90
2022-08-25T14:43:37.379Z,7.93
2022-08-25T14:46:16.685Z,8.77
2022-08-25T14:48:47.138Z,7.82
2022-08-25T14:51:17.227Z,7.97
2022-08-25T14:53:44.872Z,7.82
2022-08-25T14:56:12.350Z,7.82
2022-08-25T14:58:50.815Z,8.27
2022-08-25T15:01:29.168Z,8.32
2022-08-25T15:04:20.801Z,8.40
2022-08-25T15:06:53.832Z,7.90
2022-08-25T15:09:21.747Z,8.00
2022-08-25T15:11:52.850Z,8.13
2022-08-25T15:14:28.580Z,7.53
2022-08-25T15:17:01.672Z,8.05
2022-08-25T15:19:29.460Z,7.60
2022-08-25T15:21:57.715Z,7.57
2022-08-25T15:24:28.348Z,8.07
2022-08-25T15:27:01.334Z,7.95
2022-08-25T15:29:30.619Z,8.02
2022-08-25T15:32:00.391Z,8.52
2022-08-25T15:34:28.700Z,8.30
2022-08-25T15:37:00.410Z,8.57
2022-08-25T15:39:28.007Z,8.48
2022-08-25T15:41:57.232Z,8.60
2022-08-25T15:44:29.454Z,7.50
2022-08-25T15:46:58.994Z,8.18
2022-08-25T15:49:29.794Z,7.55
2022-08-25T15:51:59.010Z,9.23
2022-08-25T15:54:27.095Z,8.30
2022-08-25T15:56:56.614Z,8.73
2022-08-25T15:59:25.702Z,8.52
2022-08-25T16:01:55.844Z,9.18
2022-08-25T16:04:24.879Z,9.10
2022-08-25T16:09:23.608Z,10.65
2022-08-25T16:11:56.770Z,9.98
2022-08-25T16:14:27.553Z,12.60
2022-08-25T16:16:58.568Z,9.80
2022-08-25T16:19:28.484Z,9.95
2022-08-25T16:21:56.010Z,9.30
2022-08-25T16:24:24.758Z,9.50
2022-08-25T16:26:52.695Z,9.25
2022-08-25T16:29:23.063Z,9.02
2022-08-25T16:31:53.441Z,9.63
2022-08-25T16:36:52.947Z,9.82
2022-08-25T16:39:21.620Z,10.18
2022-08-25T16:41:52.802Z,10.20
2022-08-25T16:44:23.975Z,10.68
2022-08-25T16:46:56.814Z,10.50
2022-08-25T16:49:25.347Z,10.48
2022-08-25T16:51:57.522Z,10.05
2022-08-25T16:54:45.668Z,11.27
2022-08-25T16:57:13.195Z,10.35
2022-08-25T16:59:42.604Z,9.90
2022-08-25T17:02:11.687Z,9.45
2022-08-25T17:04:42.955Z,11.90
2022-08-25T17:07:13.131Z,11.75
2022-08-25T17:09:42.639Z,11.68
2022-08-25T17:12:11.531Z,11.75
2022-08-25T17:14:38.806Z,11.80
2022-08-25T17:17:08.850Z,12.60
2022-08-25T17:19:36.588Z,12.68
2022-08-25T17:22:07.226Z,12.07
2022-08-25T17:24:35.067Z,11.55
2022-08-25T17:27:02.692Z,11.55
2022-08-25T17:29:29.908Z,11.25
2022-08-25T17:31:59.286Z,11.88
2022-08-25T17:34:27.562Z,12.25
2022-08-25T17:36:55.510Z,12.75
2022-08-25T17:39:28.377Z,11.90
2022-08-25T17:41:55.695Z,12.45
2022-08-25T17:44:23.105Z,15.85
2022-08-25T17:46:51.612Z,17.20
2022-08-25T17:49:19.737Z,22.90
2022-08-25T17:51:47.447Z,22.63
2022-08-25T17:54:17.570Z,25.27
2022-08-25T17:56:47.463Z,14.73
2022-08-25T17:59:16.653Z,15.98
2022-08-25T18:01:45.371Z,15.52
2022-08-25T18:04:17.245Z,14.98
2022-08-25T18:06:48.679Z,15.70
2022-08-25T18:09:17.462Z,14.75
2022-08-25T18:11:45.962Z,11.85
2022-08-25T18:14:14.499Z,13.65
2022-08-25T18:16:42.150Z,10.98
2022-08-25T18:19:10.973Z,12.48
2022-08-25T18:21:38.946Z,10.57
2022-08-25T18:24:06.977Z,8.95
2022-08-25T18:26:34.618Z,9.98
2022-08-25T18:29:02.340Z,10.77
2022-08-25T18:31:29.664Z,10.75
2022-08-25T18:33:58.417Z,10.52
2022-08-25T18:36:27.639Z,9.57
2022-08-25T18:39:17.383Z,10.45
2022-08-25T18:41:45.092Z,14.25
2022-08-25T18:44:12.756Z,15.80
2022-08-25T18:46:43.558Z,14.80
2022-08-25T18:49:15.817Z,15.68
2022-08-25T18:51:45.148Z,16.38
2022-08-25T18:54:23.550Z,16.15
2022-08-25T18:56:54.795Z,17.10
2022-08-25T18:59:23.742Z,15.38
2022-08-25T19:01:56.948Z,14.10
2022-08-25T19:04:31.244Z,13.27
2022-08-25T19:07:05.409Z,13.68
2022-08-25T19:09:36.552Z,15.05
2022-08-25T19:12:07.216Z,14.82
2022-08-25T19:14:39.163Z,15.35
2022-08-25T19:17:06.438Z,16.20
2022-08-25T19:19:33.839Z,15.48
2022-08-25T19:22:01.012Z,16.30
2022-08-25T19:24:31.186Z,16.63
2022-08-25T19:27:02.354Z,14.55
2022-08-25T19:29:30.458Z,14.18
2022-08-25T19:32:01.233Z,13.23
2022-08-25T19:34:33.634Z,11.85
2022-08-25T19:39:33.175Z,13.55
2022-08-25T19:42:00.518Z,13.60
2022-08-25T19:44:31.023Z,13.15
2022-08-25T19:46:58.941Z,12.40
2022-08-25T19:49:31.731Z,12.38
2022-08-25T19:52:02.681Z,13.93
2022-08-25T19:54:34.736Z,15.75
2022-08-25T19:57:03.178Z,20.00
2022-08-25T19:59:40.599Z,21.45
2022-08-25T20:02:21.137Z,10.10
2022-08-25T20:04:52.351Z,11.68
2022-08-25T20:07:23.807Z,9.52
2022-08-25T20:09:53.158Z,10.02
2022-08-25T20:12:21.069Z,9.48
2022-08-25T20:14:49.495Z,9.50
2022-08-25T20:17:24.371Z,9.57
2022-08-25T20:19:56.175Z,11.45
2022-08-25T20:22:26.920Z,11.13
2022-08-25T20:25:17.600Z,11.18
2022-08-25T20:27:52.461Z,10.03
2022-08-25T20:30:23.715Z,10.20
2022-08-25T20:32:52.300Z,10.35
2022-08-25T20:35:26.719Z,9.50
2022-08-25T20:37:58.682Z,9.35
2022-08-25T20:40:28.425Z,9.17
2022-08-25T20:42:58.749Z,9.10
2022-08-25T20:45:26.394Z,8.15
2022-08-25T20:47:53.821Z,8.32
2022-08-25T20:50:22.976Z,8.88
2022-08-25T20:52:51.581Z,9.07
2022-08-25T20:55:19.235Z,8.95
2022-08-25T20:57:46.820Z,9.05
2022-08-25T21:00:15.485Z,9.68
2022-08-25T21:02:46.489Z,10.02
2022-08-25T21:05:42.375Z,10.15
2022-08-25T21:08:10.512Z,9.45
2022-08-25T21:10:38.287Z,8.98
2022-08-25T21:13:06.714Z,9.18
2022-08-25T21:15:34.155Z,9.68
2022-08-25T21:18:12.784Z,9.48
2022-08-25T21:20:51.034Z,9.80
2022-08-25T21:23:29.260Z,9.82
2022-08-25T21:26:12.695Z,9.50
2022-08-25T21:28:47.691Z,10.43
2022-08-25T21:31:31.805Z,11.43
2022-08-25T21:34:01.143Z,11.95
2022-08-25T21:36:32.141Z,12.32
2022-08-25T21:39:00.970Z,13.48
2022-08-25T21:41:32.995Z,13.88
2022-08-25T21:44:04.518Z,14.10
2022-08-25T21:46:33.764Z,14.93
2022-08-25T21:49:06.185Z,14.48
2022-08-25T21:51:43.556Z,14.52
2022-08-25T21:54:14.285Z,13.48
2022-08-25T21:56:43.019Z,13.48
2022-08-25T21:59:13.670Z,13.90
2022-08-25T22:01:41.988Z,13.77
2022-08-25T22:04:11.016Z,14.38
2022-08-25T22:06:39.135Z,14.05
2022-08-25T22:09:09.006Z,14.35
2022-08-25T22:11:36.403Z,16.65
2022-08-25T22:14:03.856Z,16.00
2022-08-25T22:16:33.385Z,15.07
2022-08-25T22:19:01.488Z,15.00
2022-08-25T22:21:29.200Z,15.38
2022-08-25T22:23:56.564Z,14.63
2022-08-25T22:26:27.380Z,18.52
2022-08-25T22:28:56.191Z,18.80
2022-08-25T22:31:24.533Z,21.48
2022-08-25T22:33:52.400Z,19.63
2022-08-25T22:36:24.630Z,18.02
2022-08-25T22:38:53.192Z,17.30
2022-08-25T22:41:24.198Z,17.38
2022-08-25T22:43:54.115Z,18.25
2022-08-25T22:46:25.512Z,15.55
2022-08-25T22:48:56.402Z,18.55
2022-08-25T22:51:27.130Z,17.70
2022-08-25T22:53:54.974Z,19.42
2022-08-25T22:56:36.708Z,22.23
2022-08-25T22:59:09.789Z,20.90
2022-08-25T23:01:37.813Z,19.42
2022-08-25T23:04:08.083Z,18.65
2022-08-25T23:06:35.583Z,20.80
2022-08-25T23:09:06.222Z,20.00
2022-08-25T23:11:33.610Z,17.98
2022-08-25T23:14:00.979Z,17.73
2022-08-25T23:16:29.125Z,15.82
2022-08-25T23:18:56.307Z,15.45
2022-08-25T23:21:42.450Z,16.08
2022-08-25T23:24:12.108Z,15.65
2022-08-25T23:26:42.507Z,15.43
2022-08-25T23:29:18.105Z,16.50
2022-08-25T23:31:48.057Z,14.85
2022-08-25T23:34:16.879Z,16.42
2022-08-25T23:36:44.804Z,16.20
2022-08-25T23:39:12.100Z,15.25
2022-08-25T23:41:41.701Z,14.98
2022-08-25T23:44:17.135Z,14.30
2022-08-25T23:46:47.066Z,15.05
2022-08-25T23:49:18.419Z,14.18
2022-08-25T23:51:48.845Z,13.70
2022-08-25T23:54:17.445Z,13.88
2022-08-25T23:56:51.653Z,13.90
2022-08-25T23:59:24.133Z,13.65
